createdAt,value
2023-01-09T00:01:08.698Z,7.5
2023-01-09T00:02:21.784Z,7.5
2023-01-09T00:03:34.710Z,7.5
2023-01-09T00:04:47.723Z,7.5
2023-01-09T00:06:00.894Z,7.5
2023-01-09T00:07:13.737Z,7.5
2023-01-09T00:08:26.697Z,7.5
2023-01-09T00:09:39.665Z,7.4
2023-01-09T00:10:52.533Z,7.3
2023-01-09T00:12:05.650Z,7.3
2023-01-09T00:13:18.787Z,7.3
2023-01-09T00:14:31.811Z,7.3
2023-01-09T00:15:44.678Z,7.3
2023-01-09T00:16:57.567Z,7.3
2023-01-09T00:18:10.696Z,7.3
2023-01-09T00:19:23.517Z,7.3
2023-01-09T00:20:36.561Z,7.3
2023-01-09T00:21:49.655Z,7.3
2023-01-09T00:23:02.992Z,7.3
2023-01-09T00:24:16.008Z,7.3
2023-01-09T00:25:28.704Z,7.3
2023-01-09T00:26:41.713Z,7.2
2023-01-09T00:27:54.694Z,7.2
2023-01-09T00:29:07.709Z,7.2
2023-01-09T00:30:20.569Z,7.2
2023-01-09T00:31:33.705Z,7.2
2023-01-09T00:32:46.753Z,7.1
2023-01-09T00:33:59.692Z,7.1
2023-01-09T00:35:12.679Z,7.1
2023-01-09T00:36:25.792Z,7.1
2023-01-09T00:37:38.686Z,7.1
2023-01-09T00:38:51.713Z,7.1
2023-01-09T00:40:04.706Z,6.9
2023-01-09T00:41:17.715Z,6.9
2023-01-09T00:42:30.716Z,6.9
2023-01-09T00:43:43.723Z,6.9
2023-01-09T00:44:56.743Z,6.9
2023-01-09T00:46:09.896Z,6.8
2023-01-09T00:47:22.708Z,6.8
2023-01-09T00:48:35.713Z,6.8
2023-01-09T00:49:48.582Z,6.8
2023-01-09T00:51:01.456Z,6.8
2023-01-09T00:52:14.760Z,6.8
2023-01-09T00:53:27.772Z,6.8
2023-01-09T00:54:40.719Z,6.8
2023-01-09T00:55:53.426Z,6.7
2023-01-09T00:57:06.718Z,6.7
2023-01-09T00:58:19.751Z,6.7
2023-01-09T00:59:32.689Z,6.7
2023-01-09T01:00:45.717Z,6.7
2023-01-09T01:01:58.521Z,6.7
2023-01-09T01:03:11.611Z,6.7
2023-01-09T01:04:24.473Z,6.7
2023-01-09T01:05:37.727Z,6.7
2023-01-09T01:06:50.949Z,6.7
2023-01-09T01:08:03.413Z,6.7
2023-01-09T01:09:16.763Z,6.7
2023-01-09T01:10:29.728Z,6.7
2023-01-09T01:11:42.715Z,6.7
2023-01-09T01:12:55.734Z,6.6
2023-01-09T01:14:08.728Z,6.6
2023-01-09T01:15:21.765Z,6.6
2023-01-09T01:16:35.115Z,6.6
2023-01-09T01:17:47.705Z,6.6
2023-01-09T01:19:00.706Z,6.6
2023-01-09T01:20:14.053Z,6.6
2023-01-09T01:21:26.757Z,6.4
2023-01-09T01:22:39.742Z,6.4
2023-01-09T01:23:52.706Z,6.4
2023-01-09T01:25:05.694Z,6.4
2023-01-09T01:26:18.700Z,6.4
2023-01-09T01:27:31.709Z,6.4
2023-01-09T01:28:44.680Z,6.4
2023-01-09T01:29:57.869Z,6.4
2023-01-09T01:31:10.720Z,6.4
2023-01-09T01:32:23.689Z,6.4
2023-01-09T01:33:36.702Z,6.4
2023-01-09T01:34:49.728Z,6.4
2023-01-09T01:36:02.731Z,6.4
2023-01-09T01:37:15.381Z,6.4
2023-01-09T01:38:28.674Z,6.4
2023-01-09T01:39:41.921Z,6.3
2023-01-09T01:40:54.744Z,6.3
2023-01-09T01:42:07.907Z,6.3
2023-01-09T01:43:20.787Z,6.3
2023-01-09T01:44:33.593Z,6.3
2023-01-09T01:45:46.651Z,6.3
2023-01-09T01:46:59.767Z,6.3
2023-01-09T01:48:13.275Z,6.3
2023-01-09T01:49:26.209Z,6.3
2023-01-09T01:50:39.361Z,6.3
2023-01-09T01:51:51.873Z,6.4
2023-01-09T01:53:04.723Z,6.4
2023-01-09T01:54:18.064Z,6.4
2023-01-09T01:55:30.868Z,6.4
2023-01-09T01:56:43.687Z,6.4
2023-01-09T01:57:56.696Z,6.4
2023-01-09T01:59:09.823Z,6.4
2023-01-09T02:00:22.724Z,6.4
2023-01-09T02:01:35.847Z,6.4
2023-01-09T02:02:48.732Z,6.4
2023-01-09T02:04:01.691Z,6.4
2023-01-09T02:05:14.932Z,6.4
2023-01-09T02:06:27.762Z,6.4
2023-01-09T02:07:40.848Z,6.4
2023-01-09T02:08:53.890Z,6.4
2023-01-09T02:10:06.897Z,6.4
2023-01-09T02:11:19.715Z,6.4
2023-01-09T02:12:32.715Z,6.4
2023-01-09T02:13:45.746Z,6.4
2023-01-09T02:14:58.641Z,6.4
2023-01-09T02:16:11.690Z,6.4
2023-01-09T02:17:24.801Z,6.4
2023-01-09T02:18:37.761Z,6.4
2023-01-09T02:19:50.753Z,6.4
2023-01-09T02:21:03.732Z,6.4
2023-01-09T02:22:16.719Z,6.4
2023-01-09T02:23:29.766Z,6.6
2023-01-09T02:24:42.790Z,6.6
2023-01-09T02:25:55.573Z,6.6
2023-01-09T02:27:08.700Z,6.6
2023-01-09T02:28:22.214Z,6.6
2023-01-09T02:29:34.743Z,6.6
2023-01-09T02:30:47.760Z,6.6
2023-01-09T02:32:00.622Z,6.6
2023-01-09T02:33:13.739Z,6.6
2023-01-09T02:34:26.712Z,6.4
2023-01-09T02:35:39.796Z,6.6
2023-01-09T02:36:52.748Z,6.4
2023-01-09T02:38:05.763Z,6.4
2023-01-09T02:39:18.717Z,6.4
2023-01-09T02:40:33.382Z,6.4
2023-01-09T02:41:44.739Z,6.4
2023-01-09T02:44:10.766Z,6.3
2023-01-09T02:45:23.778Z,6.3
2023-01-09T02:46:36.756Z,6.3
2023-01-09T02:47:50.111Z,6.4
2023-01-09T02:49:02.702Z,6.4
2023-01-09T02:50:15.527Z,6.4
2023-01-09T02:51:28.737Z,6.4
2023-01-09T02:52:41.707Z,6.6
2023-01-09T02:53:54.763Z,6.6
2023-01-09T02:55:07.739Z,6.6
2023-01-09T02:56:20.790Z,6.6
2023-01-09T02:57:33.923Z,6.6
2023-01-09T02:58:46.929Z,6.6
2023-01-09T02:59:59.750Z,6.6
2023-01-09T03:01:13.059Z,6.6
2023-01-09T03:02:25.613Z,6.6
2023-01-09T03:04:51.904Z,6.6
2023-01-09T03:06:04.623Z,6.6
2023-01-09T03:07:17.618Z,6.6
2023-01-09T03:08:30.636Z,6.6
2023-01-09T03:09:43.746Z,6.6
2023-01-09T03:10:56.705Z,6.6
2023-01-09T03:12:09.776Z,6.7
2023-01-09T03:13:22.784Z,6.7
2023-01-09T03:14:35.768Z,6.7
2023-01-09T03:15:48.731Z,6.7
2023-01-09T03:17:01.979Z,6.7
2023-01-09T03:18:14.784Z,6.7
2023-01-09T03:19:28.115Z,6.7
2023-01-09T03:20:42.313Z,6.7
2023-01-09T03:21:54.081Z,6.7
2023-01-09T03:23:06.937Z,6.7
2023-01-09T03:24:20.122Z,6.7
2023-01-09T03:25:32.787Z,6.7
2023-01-09T03:26:45.780Z,6.7
2023-01-09T03:27:59.207Z,6.7
2023-01-09T03:29:11.755Z,6.7
2023-01-09T03:30:24.632Z,6.7
2023-01-09T03:31:37.859Z,6.7
2023-01-09T03:32:50.988Z,6.7
2023-01-09T03:34:03.783Z,6.7
2023-01-09T03:35:16.756Z,6.7
2023-01-09T03:36:29.803Z,6.7
2023-01-09T03:37:42.821Z,6.7
2023-01-09T03:38:55.907Z,6.7
2023-01-09T03:40:11.181Z,6.6
2023-01-09T03:41:21.957Z,6.6
2023-01-09T03:42:34.778Z,6.6
2023-01-09T03:43:48.139Z,6.6
2023-01-09T03:45:00.969Z,6.6
2023-01-09T03:46:13.789Z,6.6
2023-01-09T03:47:27.602Z,6.6
2023-01-09T03:48:39.856Z,6.6
2023-01-09T03:49:52.762Z,6.6
2023-01-09T03:51:05.787Z,6.4
2023-01-09T03:52:18.801Z,6.4
2023-01-09T03:53:31.950Z,6.4
2023-01-09T03:54:44.811Z,6.3
2023-01-09T03:55:57.913Z,6.3
2023-01-09T03:57:10.805Z,6.2
2023-01-09T03:58:23.798Z,6.2
2023-01-09T03:59:36.737Z,6.1
2023-01-09T04:39:48.314Z,4.9
2023-01-09T04:40:58.655Z,4.9
2023-01-09T04:42:12.179Z,4.9
2023-01-09T04:43:24.493Z,4.9
2023-01-09T04:44:37.727Z,4.7
2023-01-09T04:45:51.242Z,4.7
2023-01-09T04:47:04.544Z,4.7
2023-01-09T04:48:16.816Z,4.7
2023-01-09T04:49:29.842Z,4.7
2023-01-09T04:50:42.504Z,4.7
2023-01-09T04:51:55.818Z,4.7
2023-01-09T04:53:09.003Z,4.7
2023-01-09T04:54:21.840Z,4.7
2023-01-09T04:55:34.816Z,4.7
2023-01-09T04:56:47.507Z,4.7
2023-01-09T04:58:01.001Z,4.7
2023-01-09T04:59:13.823Z,4.7
2023-01-09T05:00:26.662Z,4.7
2023-01-09T05:02:52.847Z,4.7
2023-01-09T05:04:05.762Z,4.7
2023-01-09T05:06:32.176Z,4.9
2023-01-09T05:07:44.853Z,4.9
2023-01-09T05:08:58.231Z,4.9
2023-01-09T05:10:10.835Z,5.1
2023-01-09T05:11:23.863Z,5.1
2023-01-09T05:12:36.739Z,5
2023-01-09T05:15:02.546Z,4.9
2023-01-09T05:17:28.980Z,5.1
2023-01-09T05:18:41.789Z,5.1
2023-01-09T05:19:54.881Z,5.1
2023-01-09T05:21:07.834Z,5.2
2023-01-09T05:24:46.826Z,5.3
2023-01-09T05:25:59.835Z,5.4
2023-01-09T05:27:12.504Z,5.4
2023-01-09T05:28:25.822Z,5.3
2023-01-09T05:30:51.851Z,5.5
2023-01-09T05:33:18.010Z,5.5
2023-01-09T05:34:30.714Z,5.5
2023-01-09T05:36:56.871Z,5.7
2023-01-09T05:39:22.820Z,5.7
2023-01-09T05:40:40.209Z,5.7
2023-01-09T05:41:48.797Z,5.7
2023-01-09T05:43:01.821Z,5.7
2023-01-09T05:51:32.525Z,5.9
2023-01-09T05:52:45.808Z,5.9
2023-01-09T05:53:58.523Z,5.9
2023-01-09T05:56:24.839Z,6.1
2023-01-09T05:57:37.859Z,6.1
2023-01-09T05:58:50.934Z,6.1
2023-01-09T06:02:30.001Z,6.1
2023-01-09T06:03:42.600Z,6
2023-01-09T06:04:55.853Z,6
2023-01-09T06:06:08.658Z,6
2023-01-09T06:09:47.671Z,6.2
2023-01-09T06:11:00.655Z,6.2
2023-01-09T06:12:13.885Z,6.2
2023-01-09T06:14:39.688Z,6.2
2023-01-09T06:23:12.774Z,6.2
2023-01-09T06:24:23.844Z,6.2
2023-01-09T06:25:36.796Z,6.2
2023-01-09T06:31:41.679Z,6.3
2023-01-09T06:35:21.267Z,6.3
2023-01-09T06:38:59.954Z,6.3
2023-01-09T06:40:14.335Z,6.3
2023-01-09T06:41:26.327Z,6.3
2023-01-09T06:42:38.902Z,6.3
2023-01-09T06:48:43.723Z,6.4
2023-01-09T06:49:56.858Z,6.4
2023-01-09T06:53:36.550Z,6.4
2023-01-09T06:56:01.816Z,6.4
2023-01-09T07:02:06.891Z,6.6
2023-01-09T07:03:20.392Z,6.6
2023-01-09T07:10:37.881Z,6.6
2023-01-09T07:25:13.891Z,6.6
2023-01-09T07:30:05.872Z,6.6
2023-01-09T07:34:57.688Z,6.6
2023-01-09T07:36:11.353Z,6.6
2023-01-09T07:37:23.574Z,6.6
2023-01-09T07:39:52.253Z,6.6
2023-01-09T07:48:20.847Z,6.7
2023-01-09T07:50:46.881Z,6.7
2023-01-09T07:58:05.288Z,6.7
2023-01-09T08:15:06.848Z,6.7
2023-01-09T08:18:45.656Z,6.7
2023-01-09T08:55:15.775Z,7.3
2023-01-09T09:08:38.855Z,7.5
2023-01-09T09:12:17.792Z,7.7
2023-01-09T09:31:45.830Z,7.9
2023-01-09T10:02:11.190Z,8.6
2023-01-09T10:26:30.775Z,8.6
2023-01-09T10:52:04.342Z,8.6
2023-01-09T11:15:10.993Z,8.4
2023-01-09T11:26:10.284Z,8.6
2023-01-09T11:29:47.207Z,8.7
2023-01-09T11:30:59.976Z,8.7
2023-01-09T11:32:12.918Z,8.7
2023-01-09T11:46:48.838Z,8.9
2023-01-09T11:55:19.772Z,8.8
2023-01-09T12:08:42.916Z,8.8
2023-01-09T12:23:18.876Z,8.6
2023-01-09T13:26:34.914Z,8.2
2023-01-09T16:40:03.539Z,7.1
2023-01-09T17:06:49.152Z,6.6
2023-01-09T17:11:40.176Z,6.6
2023-01-09T17:14:05.928Z,6.6
2023-01-09T17:35:59.965Z,6.3
2023-01-09T17:37:13.027Z,6.4
2023-01-09T18:06:24.901Z,6.4
2023-01-09T18:12:30.143Z,6.4
2023-01-09T18:22:13.922Z,6.3
2023-01-09T18:24:40.099Z,6.3
2023-01-09T18:27:06.043Z,6.3
2023-01-09T18:28:19.235Z,6.3
2023-01-09T18:29:32.273Z,6.3
2023-01-09T18:30:45.086Z,6.3
2023-01-09T18:31:58.111Z,6.3
2023-01-09T18:33:11.247Z,6.2
2023-01-09T18:34:23.907Z,6.2
2023-01-09T18:36:50.127Z,6.2
2023-01-09T18:38:02.955Z,6.2
2023-01-09T18:39:16.204Z,6
2023-01-09T18:40:29.179Z,6
2023-01-09T18:42:55.208Z,6.1
2023-01-09T18:45:21.225Z,5.9
2023-01-09T18:46:34.243Z,5.9
2023-01-09T18:49:00.064Z,6
2023-01-09T18:50:13.215Z,6.1
2023-01-09T18:56:18.132Z,6.1
2023-01-09T19:02:23.261Z,6.1
2023-01-09T19:03:36.212Z,6
2023-01-09T19:04:49.257Z,5.9
2023-01-09T19:08:29.132Z,5.9
2023-01-09T19:12:07.237Z,5.9
2023-01-09T19:13:20.120Z,5.9
2023-01-09T19:15:46.016Z,6.1
2023-01-09T19:16:59.215Z,6.1
2023-01-09T19:20:38.105Z,6.1
2023-01-09T19:21:51.396Z,6.1
2023-01-09T19:23:04.174Z,6.1
2023-01-09T19:24:16.932Z,6.1
2023-01-09T19:25:29.959Z,6
2023-01-09T19:26:43.556Z,6
2023-01-09T19:27:55.982Z,6
2023-01-09T19:29:09.183Z,6
2023-01-09T19:30:21.961Z,6
2023-01-09T19:32:47.944Z,6
2023-01-09T19:34:00.944Z,6
2023-01-09T19:35:14.111Z,6
2023-01-09T19:36:27.090Z,6
2023-01-09T19:37:40.355Z,6
2023-01-09T19:38:53.044Z,6
2023-01-09T19:40:07.598Z,6
2023-01-09T19:43:44.937Z,6.1
2023-01-09T19:44:58.457Z,6.1
2023-01-09T19:46:11.205Z,6.1
2023-01-09T19:48:36.999Z,6.1
2023-01-09T19:49:50.093Z,6
2023-01-09T19:51:03.028Z,6.1
2023-01-09T19:52:16.254Z,6.1
2023-01-09T19:54:41.928Z,6.1
2023-01-09T19:55:55.196Z,6.1
2023-01-09T19:59:35.914Z,6.1
2023-01-09T20:02:00.256Z,6.1
2023-01-09T20:03:12.879Z,6.1
2023-01-09T20:06:51.970Z,6.1
2023-01-09T20:08:05.094Z,6.1
2023-01-09T20:09:18.043Z,6.1
2023-01-09T20:10:31.503Z,6.1
2023-01-09T20:12:56.841Z,6.1
2023-01-09T20:14:09.884Z,6
2023-01-09T20:15:22.978Z,6
2023-01-09T20:16:36.019Z,6.1
2023-01-09T20:17:49.164Z,6.2
2023-01-09T20:19:01.892Z,6.2
2023-01-09T20:21:28.103Z,6.2
2023-01-09T20:22:41.263Z,6.2
2023-01-09T20:23:53.812Z,6.2
2023-01-09T20:25:07.142Z,6.2
2023-01-09T20:26:19.869Z,6.2
2023-01-09T20:27:32.931Z,6.2
2023-01-09T20:28:46.175Z,6.2
2023-01-09T20:29:58.888Z,6.2
2023-01-09T20:31:12.350Z,6.2
2023-01-09T20:32:25.100Z,6.3
2023-01-09T20:33:38.108Z,6.3
2023-01-09T20:34:51.746Z,6.3
2023-01-09T20:36:04.766Z,6.3
2023-01-09T20:40:56.012Z,6.3
2023-01-09T20:42:09.758Z,6.3
2023-01-09T20:43:21.841Z,6.3
2023-01-09T20:44:34.954Z,6.3
2023-01-09T20:55:31.846Z,6.4
2023-01-09T21:08:55.229Z,6.4
2023-01-09T21:24:44.482Z,6.6
2023-01-09T21:25:57.169Z,6.6
2023-01-09T21:27:10.170Z,6.6
2023-01-09T21:28:23.145Z,6.6
2023-01-09T21:29:36.023Z,6.6
2023-01-09T21:30:49.162Z,6.6
2023-01-09T21:32:02.180Z,6.6
2023-01-09T21:33:15.464Z,6.6
2023-01-09T21:34:28.639Z,6.6
2023-01-09T21:36:54.404Z,6.4
2023-01-09T21:41:46.026Z,6.4
2023-01-09T21:42:58.939Z,6.4
2023-01-09T21:44:12.545Z,6.4
2023-01-09T21:45:25.138Z,6.4
2023-01-09T21:46:37.827Z,6.4
2023-01-09T21:47:51.356Z,6.4
2023-01-09T21:49:04.543Z,6.4
2023-01-09T21:51:30.152Z,6.4
2023-01-09T21:52:43.208Z,6.4
2023-01-09T21:53:56.699Z,6.4
2023-01-09T21:55:08.958Z,6.3
2023-01-09T21:56:22.568Z,6.3
2023-01-09T21:57:35.049Z,6.3
2023-01-09T21:58:48.209Z,6.3
2023-01-09T22:00:01.171Z,6.4
2023-01-09T22:01:14.205Z,6.4
2023-01-09T22:02:27.241Z,6.4
2023-01-09T22:04:53.546Z,6.4
2023-01-09T22:08:32.304Z,6.4
2023-01-09T22:09:45.181Z,6.4
2023-01-09T22:10:58.619Z,6.4
2023-01-09T22:12:11.171Z,6.4
2023-01-09T22:15:49.938Z,6.4
2023-01-09T22:24:21.271Z,6.4
2023-01-09T22:26:47.052Z,6.4
2023-01-09T22:38:57.299Z,6.4
2023-01-09T22:41:23.223Z,6.4
2023-01-09T22:42:36.187Z,6.4
2023-01-09T22:47:28.233Z,6.4
2023-01-09T22:48:40.979Z,6.4
2023-01-09T22:51:07.034Z,6.3
2023-01-09T22:52:20.399Z,6.3
2023-01-09T22:54:46.590Z,6.3
2023-01-09T23:06:55.882Z,5.9
2023-01-09T23:10:34.903Z,5.7
2023-01-09T23:15:27.221Z,5.6
2023-01-09T23:20:19.239Z,5.3
2023-01-09T23:21:32.197Z,5.3
2023-01-09T23:23:58.228Z,5.3
2023-01-09T23:25:11.043Z,5.3
2023-01-09T23:27:37.247Z,5.3
2023-01-09T23:30:02.865Z,5.3
2023-01-09T23:31:15.915Z,5.3
2023-01-09T23:32:29.219Z,5.3
2023-01-09T23:34:55.061Z,5.3
2023-01-09T23:38:33.887Z,5.3
2023-01-09T23:40:59.949Z,5.3
2023-01-09T23:42:12.932Z,5.3
2023-01-09T23:44:39.225Z,5.3
2023-01-09T23:45:52.474Z,5.3
2023-01-09T23:47:05.215Z,5.3
2023-01-09T23:54:23.846Z,5.3
2023-01-09T23:55:36.001Z,5.3
